sensor_id;sensor_type;location;lat;lon;timestamp;P1;durP1;ratioP1;P2;durP2;ratioP2
61200;SDS011;47065;52.898;6.992;2023-01-16T00:01:22;9.70;;;2.85;;
61200;SDS011;47065;52.898;6.992;2023-01-16T00:03:49;4.55;;;2.20;;
61200;SDS011;47065;52.898;6.992;2023-01-16T00:06:17;7.28;;;2.17;;
61200;SDS011;47065;52.898;6.992;2023-01-16T00:08:46;4.93;;;2.55;;
61200;SDS011;47065;52.898;6.992;2023-01-16T00:11:13;8.85;;;3.08;;
61200;SDS011;47065;52.898;6.992;2023-01-16T00:13:39;8.25;;;2.58;;
61200;SDS011;47065;52.898;6.992;2023-01-16T00:16:05;5.95;;;2.00;;
61200;SDS011;47065;52.898;6.992;2023-01-16T00:18:31;4.07;;;2.05;;
61200;SDS011;47065;52.898;6.992;2023-01-16T00:20:56;7.60;;;2.70;;
61200;SDS011;47065;52.898;6.992;2023-01-16T00:23:22;7.13;;;2.22;;
61200;SDS011;47065;52.898;6.992;2023-01-16T00:25:48;10.07;;;2.60;;
61200;SDS011;47065;52.898;6.992;2023-01-16T00:28:14;8.38;;;2.53;;
61200;SDS011;47065;52.898;6.992;2023-01-16T00:30:41;11.82;;;2.03;;
61200;SDS011;47065;52.898;6.992;2023-01-16T00:33:07;6.25;;;3.10;;
61200;SDS011;47065;52.898;6.992;2023-01-16T00:35:34;6.10;;;2.20;;
61200;SDS011;47065;52.898;6.992;2023-01-16T00:38:00;13.85;;;3.88;;
61200;SDS011;47065;52.898;6.992;2023-01-16T00:44:07;9.55;;;2.42;;
61200;SDS011;47065;52.898;6.992;2023-01-16T00:46:32;7.93;;;2.20;;
61200;SDS011;47065;52.898;6.992;2023-01-16T00:48:58;9.20;;;2.45;;
61200;SDS011;47065;52.898;6.992;2023-01-16T00:51:24;6.75;;;2.50;;
61200;SDS011;47065;52.898;6.992;2023-01-16T00:53:49;5.35;;;2.33;;
61200;SDS011;47065;52.898;6.992;2023-01-16T00:59:32;7.22;;;2.83;;
61200;SDS011;47065;52.898;6.992;2023-01-16T01:02:00;7.22;;;2.03;;
61200;SDS011;47065;52.898;6.992;2023-01-16T01:04:27;7.68;;;2.28;;
61200;SDS011;47065;52.898;6.992;2023-01-16T01:07:05;7.93;;;2.35;;
61200;SDS011;47065;52.898;6.992;2023-01-16T01:09:57;5.00;;;2.33;;
61200;SDS011;47065;52.898;6.992;2023-01-16T01:12:22;6.32;;;2.40;;
61200;SDS011;47065;52.898;6.992;2023-01-16T01:15:05;5.35;;;2.53;;
61200;SDS011;47065;52.898;6.992;2023-01-16T01:17:31;8.77;;;2.65;;
61200;SDS011;47065;52.898;6.992;2023-01-16T01:19:57;11.75;;;3.75;;
61200;SDS011;47065;52.898;6.992;2023-01-16T01:22:23;8.30;;;2.35;;
61200;SDS011;47065;52.898;6.992;2023-01-16T01:24:49;9.15;;;2.65;;
61200;SDS011;47065;52.898;6.992;2023-01-16T01:27:15;6.65;;;2.17;;
61200;SDS011;47065;52.898;6.992;2023-01-16T01:29:42;8.10;;;2.13;;
61200;SDS011;47065;52.898;6.992;2023-01-16T01:32:07;5.85;;;2.53;;
61200;SDS011;47065;52.898;6.992;2023-01-16T01:34:33;3.55;;;1.70;;
61200;SDS011;47065;52.898;6.992;2023-01-16T01:37:00;8.45;;;1.95;;
61200;SDS011;47065;52.898;6.992;2023-01-16T01:39:30;8.10;;;1.63;;
61200;SDS011;47065;52.898;6.992;2023-01-16T01:41:56;9.88;;;1.70;;
61200;SDS011;47065;52.898;6.992;2023-01-16T01:47:32;8.02;;;1.92;;
61200;SDS011;47065;52.898;6.992;2023-01-16T01:50:03;8.07;;;2.63;;
61200;SDS011;47065;52.898;6.992;2023-01-16T01:52:36;3.83;;;1.85;;
61200;SDS011;47065;52.898;6.992;2023-01-16T01:55:03;5.30;;;2.10;;
61200;SDS011;47065;52.898;6.992;2023-01-16T01:57:35;5.57;;;1.65;;
61200;SDS011;47065;52.898;6.992;2023-01-16T02:00:06;4.87;;;2.07;;
61200;SDS011;47065;52.898;6.992;2023-01-16T02:02:36;4.15;;;1.40;;
61200;SDS011;47065;52.898;6.992;2023-01-16T02:05:05;6.47;;;2.80;;
61200;SDS011;47065;52.898;6.992;2023-01-16T02:07:33;6.75;;;2.25;;
61200;SDS011;47065;52.898;6.992;2023-01-16T02:10:01;7.32;;;2.15;;
61200;SDS011;47065;52.898;6.992;2023-01-16T02:12:34;9.63;;;1.67;;
61200;SDS011;47065;52.898;6.992;2023-01-16T02:15:00;5.88;;;1.75;;
61200;SDS011;47065;52.898;6.992;2023-01-16T02:17:27;6.18;;;1.60;;
61200;SDS011;47065;52.898;6.992;2023-01-16T02:20:14;5.75;;;2.05;;
61200;SDS011;47065;52.898;6.992;2023-01-16T02:33:51;5.40;;;1.98;;
61200;SDS011;47065;52.898;6.992;2023-01-16T02:42:44;13.35;;;2.63;;
61200;SDS011;47065;52.898;6.992;2023-01-16T02:45:21;10.80;;;2.53;;
61200;SDS011;47065;52.898;6.992;2023-01-16T02:48:56;8.15;;;2.45;;
61200;SDS011;47065;52.898;6.992;2023-01-16T02:54:10;5.07;;;2.03;;
61200;SDS011;47065;52.898;6.992;2023-01-16T02:56:45;8.23;;;1.75;;
61200;SDS011;47065;52.898;6.992;2023-01-16T02:59:16;7.40;;;1.80;;
61200;SDS011;47065;52.898;6.992;2023-01-16T03:01:44;5.28;;;2.17;;
61200;SDS011;47065;52.898;6.992;2023-01-16T03:07:32;5.05;;;2.15;;
61200;SDS011;47065;52.898;6.992;2023-01-16T03:16:12;9.02;;;3.05;;
61200;SDS011;47065;52.898;6.992;2023-01-16T03:21:51;6.65;;;1.73;;
61200;SDS011;47065;52.898;6.992;2023-01-16T03:32:45;6.28;;;2.47;;
61200;SDS011;47065;52.898;6.992;2023-01-16T03:35:49;6.75;;;2.15;;
61200;SDS011;47065;52.898;6.992;2023-01-16T03:38:14;11.35;;;2.47;;
61200;SDS011;47065;52.898;6.992;2023-01-16T03:40:44;7.25;;;2.53;;
61200;SDS011;47065;52.898;6.992;2023-01-16T03:43:16;7.18;;;2.97;;
61200;SDS011;47065;52.898;6.992;2023-01-16T03:51:00;14.35;;;3.10;;
61200;SDS011;47065;52.898;6.992;2023-01-16T03:53:30;5.50;;;2.10;;
61200;SDS011;47065;52.898;6.992;2023-01-16T03:56:04;10.32;;;3.00;;
61200;SDS011;47065;52.898;6.992;2023-01-16T03:58:44;8.75;;;2.80;;
61200;SDS011;47065;52.898;6.992;2023-01-16T04:10:10;5.13;;;3.35;;
61200;SDS011;47065;52.898;6.992;2023-01-16T04:12:42;5.35;;;3.22;;
61200;SDS011;47065;52.898;6.992;2023-01-16T04:15:12;5.20;;;3.63;;
61200;SDS011;47065;52.898;6.992;2023-01-16T04:17:39;7.30;;;4.00;;
61200;SDS011;47065;52.898;6.992;2023-01-16T04:20:06;7.30;;;4.53;;
61200;SDS011;47065;52.898;6.992;2023-01-16T04:22:33;8.65;;;4.45;;
61200;SDS011;47065;52.898;6.992;2023-01-16T04:24:59;5.88;;;4.50;;
61200;SDS011;47065;52.898;6.992;2023-01-16T04:27:27;8.82;;;4.93;;
61200;SDS011;47065;52.898;6.992;2023-01-16T04:29:53;7.55;;;5.53;;
61200;SDS011;47065;52.898;6.992;2023-01-16T04:32:18;10.70;;;6.82;;
61200;SDS011;47065;52.898;6.992;2023-01-16T04:34:44;8.77;;;5.45;;
61200;SDS011;47065;52.898;6.992;2023-01-16T04:37:13;8.70;;;6.03;;
61200;SDS011;47065;52.898;6.992;2023-01-16T04:39:40;13.70;;;8.45;;
61200;SDS011;47065;52.898;6.992;2023-01-16T04:42:06;11.43;;;7.25;;
61200;SDS011;47065;52.898;6.992;2023-01-16T04:44:33;13.18;;;8.07;;
61200;SDS011;47065;52.898;6.992;2023-01-16T04:46:58;14.95;;;7.85;;
61200;SDS011;47065;52.898;6.992;2023-01-16T04:49:24;19.75;;;9.57;;
61200;SDS011;47065;52.898;6.992;2023-01-16T04:51:50;17.02;;;9.25;;
61200;SDS011;47065;52.898;6.992;2023-01-16T04:54:16;17.92;;;9.35;;
61200;SDS011;47065;52.898;6.992;2023-01-16T04:56:44;16.00;;;10.07;;
61200;SDS011;47065;52.898;6.992;2023-01-16T04:59:10;15.43;;;9.10;;
61200;SDS011;47065;52.898;6.992;2023-01-16T05:01:37;15.80;;;10.48;;
61200;SDS011;47065;52.898;6.992;2023-01-16T05:04:04;14.05;;;9.20;;
61200;SDS011;47065;52.898;6.992;2023-01-16T05:06:31;15.75;;;9.55;;
61200;SDS011;47065;52.898;6.992;2023-01-16T05:08:57;14.68;;;9.25;;
61200;SDS011;47065;52.898;6.992;2023-01-16T05:11:23;15.75;;;9.60;;
61200;SDS011;47065;52.898;6.992;2023-01-16T05:13:48;14.18;;;8.77;;
61200;SDS011;47065;52.898;6.992;2023-01-16T05:16:14;15.20;;;8.65;;
61200;SDS011;47065;52.898;6.992;2023-01-16T05:18:40;13.98;;;7.90;;
61200;SDS011;47065;52.898;6.992;2023-01-16T05:21:05;16.30;;;8.05;;
61200;SDS011;47065;52.898;6.992;2023-01-16T05:23:31;11.75;;;7.95;;
61200;SDS011;47065;52.898;6.992;2023-01-16T05:26:02;12.48;;;7.70;;
61200;SDS011;47065;52.898;6.992;2023-01-16T05:28:29;12.98;;;7.65;;
61200;SDS011;47065;52.898;6.992;2023-01-16T05:30:54;15.15;;;8.48;;
61200;SDS011;47065;52.898;6.992;2023-01-16T05:33:23;18.08;;;9.35;;
61200;SDS011;47065;52.898;6.992;2023-01-16T05:35:49;17.17;;;8.70;;
61200;SDS011;47065;52.898;6.992;2023-01-16T05:38:16;13.40;;;7.40;;
61200;SDS011;47065;52.898;6.992;2023-01-16T05:40:45;11.15;;;7.82;;
61200;SDS011;47065;52.898;6.992;2023-01-16T05:43:11;17.15;;;8.70;;
61200;SDS011;47065;52.898;6.992;2023-01-16T05:45:37;11.55;;;7.95;;
61200;SDS011;47065;52.898;6.992;2023-01-16T05:48:02;11.88;;;7.05;;
61200;SDS011;47065;52.898;6.992;2023-01-16T05:50:31;24.05;;;8.07;;
61200;SDS011;47065;52.898;6.992;2023-01-16T05:52:57;25.25;;;9.63;;
61200;SDS011;47065;52.898;6.992;2023-01-16T05:55:42;22.02;;;7.65;;
61200;SDS011;47065;52.898;6.992;2023-01-16T05:58:12;15.07;;;7.82;;
61200;SDS011;47065;52.898;6.992;2023-01-16T06:00:40;13.73;;;6.78;;
61200;SDS011;47065;52.898;6.992;2023-01-16T06:03:08;17.48;;;7.05;;
61200;SDS011;47065;52.898;6.992;2023-01-16T06:05:34;12.68;;;6.82;;
61200;SDS011;47065;52.898;6.992;2023-01-16T06:08:00;10.93;;;6.38;;
61200;SDS011;47065;52.898;6.992;2023-01-16T06:10:26;10.50;;;6.30;;
61200;SDS011;47065;52.898;6.992;2023-01-16T06:12:53;17.90;;;7.57;;
61200;SDS011;47065;52.898;6.992;2023-01-16T06:15:19;11.48;;;6.95;;
61200;SDS011;47065;52.898;6.992;2023-01-16T06:17:48;13.57;;;7.13;;
61200;SDS011;47065;52.898;6.992;2023-01-16T06:20:23;13.48;;;6.55;;
61200;SDS011;47065;52.898;6.992;2023-01-16T06:23:43;12.82;;;6.65;;
61200;SDS011;47065;52.898;6.992;2023-01-16T06:26:34;11.40;;;6.78;;
61200;SDS011;47065;52.898;6.992;2023-01-16T06:29:00;12.75;;;6.28;;
61200;SDS011;47065;52.898;6.992;2023-01-16T06:31:25;11.80;;;6.90;;
61200;SDS011;47065;52.898;6.992;2023-01-16T06:33:51;13.55;;;6.70;;
61200;SDS011;47065;52.898;6.992;2023-01-16T06:36:17;13.73;;;6.25;;
61200;SDS011;47065;52.898;6.992;2023-01-16T06:38:42;15.60;;;6.65;;
61200;SDS011;47065;52.898;6.992;2023-01-16T06:41:08;12.73;;;6.40;;
61200;SDS011;47065;52.898;6.992;2023-01-16T06:43:34;10.30;;;5.82;;
61200;SDS011;47065;52.898;6.992;2023-01-16T06:46:00;10.70;;;6.00;;
61200;SDS011;47065;52.898;6.992;2023-01-16T06:48:26;12.13;;;6.10;;
61200;SDS011;47065;52.898;6.992;2023-01-16T06:50:53;12.55;;;5.72;;
61200;SDS011;47065;52.898;6.992;2023-01-16T06:53:19;11.27;;;5.35;;
61200;SDS011;47065;52.898;6.992;2023-01-16T06:55:44;13.93;;;5.53;;
61200;SDS011;47065;52.898;6.992;2023-01-16T06:58:10;14.35;;;6.10;;
61200;SDS011;47065;52.898;6.992;2023-01-16T07:00:36;13.27;;;5.80;;
61200;SDS011;47065;52.898;6.992;2023-01-16T07:03:02;15.77;;;5.85;;
61200;SDS011;47065;52.898;6.992;2023-01-16T07:05:29;12.10;;;5.68;;
61200;SDS011;47065;52.898;6.992;2023-01-16T07:07:56;10.35;;;5.85;;
61200;SDS011;47065;52.898;6.992;2023-01-16T07:10:22;15.82;;;7.10;;
61200;SDS011;47065;52.898;6.992;2023-01-16T07:12:48;11.35;;;6.80;;
61200;SDS011;47065;52.898;6.992;2023-01-16T07:15:15;12.38;;;7.20;;
61200;SDS011;47065;52.898;6.992;2023-01-16T07:17:59;11.25;;;6.45;;
61200;SDS011;47065;52.898;6.992;2023-01-16T07:20:48;11.88;;;6.32;;
61200;SDS011;47065;52.898;6.992;2023-01-16T07:23:36;16.35;;;7.78;;
61200;SDS011;47065;52.898;6.992;2023-01-16T07:26:04;12.27;;;6.30;;
61200;SDS011;47065;52.898;6.992;2023-01-16T07:28:32;12.27;;;6.15;;
61200;SDS011;47065;52.898;6.992;2023-01-16T07:30:59;11.07;;;6.03;;
61200;SDS011;47065;52.898;6.992;2023-01-16T07:33:28;13.98;;;6.05;;
61200;SDS011;47065;52.898;6.992;2023-01-16T07:35:54;10.63;;;6.60;;
61200;SDS011;47065;52.898;6.992;2023-01-16T07:38:20;12.65;;;6.65;;
61200;SDS011;47065;52.898;6.992;2023-01-16T07:40:45;20.80;;;7.25;;
61200;SDS011;47065;52.898;6.992;2023-01-16T07:43:11;11.55;;;6.72;;
61200;SDS011;47065;52.898;6.992;2023-01-16T07:45:37;22.95;;;8.82;;
61200;SDS011;47065;52.898;6.992;2023-01-16T07:48:02;15.90;;;7.15;;
61200;SDS011;47065;52.898;6.992;2023-01-16T07:50:28;15.77;;;7.15;;
61200;SDS011;47065;52.898;6.992;2023-01-16T07:52:54;12.27;;;7.90;;
61200;SDS011;47065;52.898;6.992;2023-01-16T07:55:24;21.23;;;7.75;;
61200;SDS011;47065;52.898;6.992;2023-01-16T07:57:50;16.05;;;8.43;;
61200;SDS011;47065;52.898;6.992;2023-01-16T08:00:15;15.95;;;8.65;;
61200;SDS011;47065;52.898;6.992;2023-01-16T08:02:41;13.48;;;7.35;;
61200;SDS011;47065;52.898;6.992;2023-01-16T08:05:07;24.23;;;8.38;;
61200;SDS011;47065;52.898;6.992;2023-01-16T08:07:34;11.90;;;7.65;;
61200;SDS011;47065;52.898;6.992;2023-01-16T08:10:00;16.33;;;8.00;;
61200;SDS011;47065;52.898;6.992;2023-01-16T08:12:30;14.20;;;6.20;;
61200;SDS011;47065;52.898;6.992;2023-01-16T08:15:20;17.17;;;8.20;;
61200;SDS011;47065;52.898;6.992;2023-01-16T08:17:52;13.63;;;6.70;;
61200;SDS011;47065;52.898;6.992;2023-01-16T08:20:26;11.48;;;8.00;;
61200;SDS011;47065;52.898;6.992;2023-01-16T08:23:13;16.67;;;6.65;;
61200;SDS011;47065;52.898;6.992;2023-01-16T08:25:39;12.88;;;6.05;;
61200;SDS011;47065;52.898;6.992;2023-01-16T08:28:05;10.40;;;6.20;;
61200;SDS011;47065;52.898;6.992;2023-01-16T08:30:30;11.75;;;6.05;;
61200;SDS011;47065;52.898;6.992;2023-01-16T08:32:57;12.90;;;6.05;;
61200;SDS011;47065;52.898;6.992;2023-01-16T08:35:26;9.65;;;5.40;;
61200;SDS011;47065;52.898;6.992;2023-01-16T08:37:52;9.73;;;5.30;;
61200;SDS011;47065;52.898;6.992;2023-01-16T08:40:21;12.43;;;6.07;;
61200;SDS011;47065;52.898;6.992;2023-01-16T08:42:50;15.30;;;5.50;;
61200;SDS011;47065;52.898;6.992;2023-01-16T08:45:34;8.02;;;4.47;;
61200;SDS011;47065;52.898;6.992;2023-01-16T08:48:24;10.73;;;4.80;;
61200;SDS011;47065;52.898;6.992;2023-01-16T08:51:14;7.85;;;4.75;;
61200;SDS011;47065;52.898;6.992;2023-01-16T08:53:53;12.82;;;4.95;;
61200;SDS011;47065;52.898;6.992;2023-01-16T08:56:20;12.30;;;4.30;;
61200;SDS011;47065;52.898;6.992;2023-01-16T08:58:47;8.75;;;4.55;;
61200;SDS011;47065;52.898;6.992;2023-01-16T09:01:13;7.28;;;3.80;;
61200;SDS011;47065;52.898;6.992;2023-01-16T09:03:40;9.05;;;4.03;;
61200;SDS011;47065;52.898;6.992;2023-01-16T09:06:06;9.18;;;3.92;;
61200;SDS011;47065;52.898;6.992;2023-01-16T09:08:31;5.35;;;3.63;;
61200;SDS011;47065;52.898;6.992;2023-01-16T09:10:57;13.05;;;5.35;;
61200;SDS011;47065;52.898;6.992;2023-01-16T09:13:41;7.18;;;3.28;;
61200;SDS011;47065;52.898;6.992;2023-01-16T09:18:41;12.82;;;3.33;;
61200;SDS011;47065;52.898;6.992;2023-01-16T09:21:07;5.90;;;3.45;;
61200;SDS011;47065;52.898;6.992;2023-01-16T09:23:33;7.53;;;3.25;;
61200;SDS011;47065;52.898;6.992;2023-01-16T09:25:58;12.55;;;3.05;;
61200;SDS011;47065;52.898;6.992;2023-01-16T09:28:24;7.60;;;3.00;;
61200;SDS011;47065;52.898;6.992;2023-01-16T09:30:53;7.63;;;2.55;;
61200;SDS011;47065;52.898;6.992;2023-01-16T09:33:18;5.00;;;3.35;;
61200;SDS011;47065;52.898;6.992;2023-01-16T09:35:44;3.80;;;2.78;;
61200;SDS011;47065;52.898;6.992;2023-01-16T09:38:09;6.45;;;2.67;;
61200;SDS011;47065;52.898;6.992;2023-01-16T09:40:35;4.97;;;2.38;;
61200;SDS011;47065;52.898;6.992;2023-01-16T09:43:05;4.38;;;3.03;;
61200;SDS011;47065;52.898;6.992;2023-01-16T09:46:00;5.93;;;2.92;;
61200;SDS011;47065;52.898;6.992;2023-01-16T09:48:32;6.85;;;3.10;;
61200;SDS011;47065;52.898;6.992;2023-01-16T09:51:03;4.10;;;2.65;;
61200;SDS011;47065;52.898;6.992;2023-01-16T09:54:19;9.15;;;2.97;;
61200;SDS011;47065;52.898;6.992;2023-01-16T09:56:51;8.57;;;3.58;;
61200;SDS011;47065;52.898;6.992;2023-01-16T09:59:43;6.72;;;3.22;;
61200;SDS011;47065;52.898;6.992;2023-01-16T10:02:24;5.82;;;2.90;;
61200;SDS011;47065;52.898;6.992;2023-01-16T10:04:51;6.55;;;3.08;;
61200;SDS011;47065;52.898;6.992;2023-01-16T10:12:43;2.72;;;1.92;;
61200;SDS011;47065;52.898;6.992;2023-01-16T10:18:27;7.38;;;2.33;;
61200;SDS011;47065;52.898;6.992;2023-01-16T10:24:03;4.22;;;2.13;;
61200;SDS011;47065;52.898;6.992;2023-01-16T10:26:37;3.97;;;2.40;;
61200;SDS011;47065;52.898;6.992;2023-01-16T10:29:25;5.05;;;2.53;;
61200;SDS011;47065;52.898;6.992;2023-01-16T10:32:16;5.03;;;2.17;;
61200;SDS011;47065;52.898;6.992;2023-01-16T10:37:19;5.38;;;2.65;;
61200;SDS011;47065;52.898;6.992;2023-01-16T10:39:46;6.55;;;2.20;;
61200;SDS011;47065;52.898;6.992;2023-01-16T10:42:16;6.40;;;2.05;;
61200;SDS011;47065;52.898;6.992;2023-01-16T10:47:55;4.03;;;1.88;;
61200;SDS011;47065;52.898;6.992;2023-01-16T10:51:00;5.07;;;2.28;;
61200;SDS011;47065;52.898;6.992;2023-01-16T10:53:26;3.50;;;1.92;;
61200;SDS011;47065;52.898;6.992;2023-01-16T10:55:52;8.88;;;2.33;;
61200;SDS011;47065;52.898;6.992;2023-01-16T11:00:51;4.22;;;2.00;;
61200;SDS011;47065;52.898;6.992;2023-01-16T11:03:55;10.95;;;2.92;;
61200;SDS011;47065;52.898;6.992;2023-01-16T11:06:19;8.52;;;2.03;;
61200;SDS011;47065;52.898;6.992;2023-01-16T11:08:47;4.80;;;3.08;;
61200;SDS011;47065;52.898;6.992;2023-01-16T11:11:14;6.63;;;2.50;;
61200;SDS011;47065;52.898;6.992;2023-01-16T11:16:47;5.53;;;2.17;;
61200;SDS011;47065;52.898;6.992;2023-01-16T11:19:40;6.57;;;2.92;;
61200;SDS011;47065;52.898;6.992;2023-01-16T11:22:20;3.97;;;2.47;;
61200;SDS011;47065;52.898;6.992;2023-01-16T11:24:53;5.93;;;2.55;;
61200;SDS011;47065;52.898;6.992;2023-01-16T11:27:23;9.75;;;2.75;;
61200;SDS011;47065;52.898;6.992;2023-01-16T11:29:52;5.25;;;3.25;;
61200;SDS011;47065;52.898;6.992;2023-01-16T11:32:20;7.40;;;3.35;;
61200;SDS011;47065;52.898;6.992;2023-01-16T11:34:50;9.15;;;3.15;;
61200;SDS011;47065;52.898;6.992;2023-01-16T11:37:22;6.30;;;2.78;;
61200;SDS011;47065;52.898;6.992;2023-01-16T11:39:52;4.85;;;2.67;;
61200;SDS011;47065;52.898;6.992;2023-01-16T11:42:19;6.95;;;3.33;;
61200;SDS011;47065;52.898;6.992;2023-01-16T11:45:11;6.35;;;2.70;;
61200;SDS011;47065;52.898;6.992;2023-01-16T11:48:04;3.58;;;2.22;;
61200;SDS011;47065;52.898;6.992;2023-01-16T11:50:49;7.40;;;2.80;;
61200;SDS011;47065;52.898;6.992;2023-01-16T11:53:16;4.13;;;2.50;;
61200;SDS011;47065;52.898;6.992;2023-01-16T11:55:45;6.07;;;3.30;;
61200;SDS011;47065;52.898;6.992;2023-01-16T12:04:17;3.42;;;2.80;;
61200;SDS011;47065;52.898;6.992;2023-01-16T12:06:48;5.43;;;2.70;;
61200;SDS011;47065;52.898;6.992;2023-01-16T12:12:05;5.30;;;3.45;;
61200;SDS011;47065;52.898;6.992;2023-01-16T12:15:03;9.27;;;3.40;;
61200;SDS011;47065;52.898;6.992;2023-01-16T12:28:37;4.78;;;2.83;;
61200;SDS011;47065;52.898;6.992;2023-01-16T12:31:17;5.50;;;2.95;;
61200;SDS011;47065;52.898;6.992;2023-01-16T12:34:22;5.10;;;2.85;;
61200;SDS011;47065;52.898;6.992;2023-01-16T12:51:21;5.13;;;3.28;;
61200;SDS011;47065;52.898;6.992;2023-01-16T13:05:17;6.00;;;2.80;;
61200;SDS011;47065;52.898;6.992;2023-01-16T13:07:52;4.57;;;2.70;;
61200;SDS011;47065;52.898;6.992;2023-01-16T13:10:28;4.20;;;2.50;;
61200;SDS011;47065;52.898;6.992;2023-01-16T13:13:18;2.15;;;1.95;;
61200;SDS011;47065;52.898;6.992;2023-01-16T13:15:48;4.53;;;2.28;;
61200;SDS011;47065;52.898;6.992;2023-01-16T13:18:26;4.88;;;3.33;;
61200;SDS011;47065;52.898;6.992;2023-01-16T13:21:00;3.45;;;1.98;;
61200;SDS011;47065;52.898;6.992;2023-01-16T13:23:31;2.55;;;1.90;;
61200;SDS011;47065;52.898;6.992;2023-01-16T13:25:59;8.20;;;2.40;;
61200;SDS011;47065;52.898;6.992;2023-01-16T13:31:25;2.38;;;2.08;;
61200;SDS011;47065;52.898;6.992;2023-01-16T13:34:09;2.85;;;2.40;;
61200;SDS011;47065;52.898;6.992;2023-01-16T13:36:44;4.18;;;2.17;;
61200;SDS011;47065;52.898;6.992;2023-01-16T13:41:57;2.75;;;2.05;;
61200;SDS011;47065;52.898;6.992;2023-01-16T13:44:25;4.85;;;3.25;;
61200;SDS011;47065;52.898;6.992;2023-01-16T13:47:17;4.32;;;2.60;;
61200;SDS011;47065;52.898;6.992;2023-01-16T13:49:51;2.42;;;2.22;;
61200;SDS011;47065;52.898;6.992;2023-01-16T13:52:19;3.70;;;2.30;;
61200;SDS011;47065;52.898;6.992;2023-01-16T13:54:50;3.90;;;1.70;;
61200;SDS011;47065;52.898;6.992;2023-01-16T13:57:26;2.67;;;1.35;;
61200;SDS011;47065;52.898;6.992;2023-01-16T13:59:54;2.28;;;1.38;;
61200;SDS011;47065;52.898;6.992;2023-01-16T14:13:41;3.42;;;1.48;;
61200;SDS011;47065;52.898;6.992;2023-01-16T14:19:02;2.35;;;1.83;;
61200;SDS011;47065;52.898;6.992;2023-01-16T14:21:45;3.50;;;2.17;;
61200;SDS011;47065;52.898;6.992;2023-01-16T14:24:40;3.15;;;2.10;;
61200;SDS011;47065;52.898;6.992;2023-01-16T14:27:12;2.70;;;1.58;;
61200;SDS011;47065;52.898;6.992;2023-01-16T14:29:51;3.35;;;2.13;;
61200;SDS011;47065;52.898;6.992;2023-01-16T14:32:22;5.68;;;2.75;;
61200;SDS011;47065;52.898;6.992;2023-01-16T14:34:54;3.10;;;2.30;;
61200;SDS011;47065;52.898;6.992;2023-01-16T14:37:22;2.83;;;1.70;;
61200;SDS011;47065;52.898;6.992;2023-01-16T14:39:52;3.03;;;2.00;;
61200;SDS011;47065;52.898;6.992;2023-01-16T14:45:33;2.17;;;1.73;;
61200;SDS011;47065;52.898;6.992;2023-01-16T14:56:50;5.43;;;1.90;;
61200;SDS011;47065;52.898;6.992;2023-01-16T14:59:24;2.42;;;2.03;;
61200;SDS011;47065;52.898;6.992;2023-01-16T15:08:14;4.18;;;1.65;;
61200;SDS011;47065;52.898;6.992;2023-01-16T15:10:38;2.90;;;2.50;;
61200;SDS011;47065;52.898;6.992;2023-01-16T15:13:49;4.50;;;1.95;;
61200;SDS011;47065;52.898;6.992;2023-01-16T15:16:25;2.42;;;1.90;;
61200;SDS011;47065;52.898;6.992;2023-01-16T15:19:14;1.67;;;1.58;;
61200;SDS011;47065;52.898;6.992;2023-01-16T15:22:00;3.33;;;1.67;;
61200;SDS011;47065;52.898;6.992;2023-01-16T15:24:26;1.50;;;1.30;;
61200;SDS011;47065;52.898;6.992;2023-01-16T15:27:12;3.60;;;1.60;;
61200;SDS011;47065;52.898;6.992;2023-01-16T15:30:00;1.55;;;1.45;;
61200;SDS011;47065;52.898;6.992;2023-01-16T15:32:30;4.20;;;1.90;;
61200;SDS011;47065;52.898;6.992;2023-01-16T15:35:16;1.92;;;1.10;;
61200;SDS011;47065;52.898;6.992;2023-01-16T15:37:52;1.83;;;1.38;;
61200;SDS011;47065;52.898;6.992;2023-01-16T15:40:23;2.53;;;1.45;;
61200;SDS011;47065;52.898;6.992;2023-01-16T15:42:50;1.98;;;1.50;;
61200;SDS011;47065;52.898;6.992;2023-01-16T15:45:35;1.58;;;1.48;;
61200;SDS011;47065;52.898;6.992;2023-01-16T15:50:59;1.48;;;1.38;;
61200;SDS011;47065;52.898;6.992;2023-01-16T15:53:34;2.38;;;2.17;;
61200;SDS011;47065;52.898;6.992;2023-01-16T15:56:16;4.53;;;2.60;;
61200;SDS011;47065;52.898;6.992;2023-01-16T15:59:02;5.72;;;2.33;;
61200;SDS011;47065;52.898;6.992;2023-01-16T16:01:29;1.80;;;1.70;;
61200;SDS011;47065;52.898;6.992;2023-01-16T16:03:58;3.55;;;1.70;;
61200;SDS011;47065;52.898;6.992;2023-01-16T16:06:25;2.00;;;1.65;;
61200;SDS011;47065;52.898;6.992;2023-01-16T16:08:54;3.83;;;2.15;;
61200;SDS011;47065;52.898;6.992;2023-01-16T16:11:27;2.05;;;1.75;;
61200;SDS011;47065;52.898;6.992;2023-01-16T16:14:16;7.25;;;4.30;;
61200;SDS011;47065;52.898;6.992;2023-01-16T16:17:26;3.17;;;2.88;;
61200;SDS011;47065;52.898;6.992;2023-01-16T16:22:55;5.78;;;2.58;;
61200;SDS011;47065;52.898;6.992;2023-01-16T16:25:34;3.15;;;2.25;;
61200;SDS011;47065;52.898;6.992;2023-01-16T16:28:03;3.53;;;2.05;;
61200;SDS011;47065;52.898;6.992;2023-01-16T16:30:31;2.80;;;2.25;;
61200;SDS011;47065;52.898;6.992;2023-01-16T16:32:57;2.50;;;2.22;;
61200;SDS011;47065;52.898;6.992;2023-01-16T16:35:32;2.60;;;2.40;;
61200;SDS011;47065;52.898;6.992;2023-01-16T16:38:00;2.88;;;2.63;;
61200;SDS011;47065;52.898;6.992;2023-01-16T16:40:27;3.42;;;2.60;;
61200;SDS011;47065;52.898;6.992;2023-01-16T16:42:59;4.00;;;2.38;;
61200;SDS011;47065;52.898;6.992;2023-01-16T16:45:34;5.47;;;2.72;;
61200;SDS011;47065;52.898;6.992;2023-01-16T16:48:20;3.45;;;2.80;;
61200;SDS011;47065;52.898;6.992;2023-01-16T16:50:49;2.90;;;2.70;;
61200;SDS011;47065;52.898;6.992;2023-01-16T16:53:22;6.35;;;3.28;;
61200;SDS011;47065;52.898;6.992;2023-01-16T16:55:53;3.08;;;2.80;;
61200;SDS011;47065;52.898;6.992;2023-01-16T16:58:32;3.65;;;3.28;;
61200;SDS011;47065;52.898;6.992;2023-01-16T17:01:05;2.80;;;2.58;;
61200;SDS011;47065;52.898;6.992;2023-01-16T17:03:30;4.68;;;3.38;;
61200;SDS011;47065;52.898;6.992;2023-01-16T17:05:56;3.80;;;3.50;;
61200;SDS011;47065;52.898;6.992;2023-01-16T17:08:28;5.57;;;3.28;;
61200;SDS011;47065;52.898;6.992;2023-01-16T17:10:54;4.53;;;3.78;;
61200;SDS011;47065;52.898;6.992;2023-01-16T17:13:21;4.10;;;3.70;;
61200;SDS011;47065;52.898;6.992;2023-01-16T17:15:57;7.72;;;4.63;;
61200;SDS011;47065;52.898;6.992;2023-01-16T17:18:24;5.80;;;4.07;;
61200;SDS011;47065;52.898;6.992;2023-01-16T17:20:51;8.15;;;4.28;;
61200;SDS011;47065;52.898;6.992;2023-01-16T17:23:18;7.07;;;5.35;;
61200;SDS011;47065;52.898;6.992;2023-01-16T17:25:44;5.80;;;5.00;;
61200;SDS011;47065;52.898;6.992;2023-01-16T17:28:11;6.35;;;4.95;;
61200;SDS011;47065;52.898;6.992;2023-01-16T17:30:38;6.68;;;5.15;;
61200;SDS011;47065;52.898;6.992;2023-01-16T17:33:11;6.60;;;5.05;;
61200;SDS011;47065;52.898;6.992;2023-01-16T17:35:42;9.80;;;6.88;;
61200;SDS011;47065;52.898;6.992;2023-01-16T17:38:12;6.28;;;5.03;;
61200;SDS011;47065;52.898;6.992;2023-01-16T17:40:42;8.18;;;5.13;;
61200;SDS011;47065;52.898;6.992;2023-01-16T17:43:19;9.27;;;6.13;;
61200;SDS011;47065;52.898;6.992;2023-01-16T17:46:07;5.40;;;4.43;;
61200;SDS011;47065;52.898;6.992;2023-01-16T17:48:35;7.72;;;4.90;;
61200;SDS011;47065;52.898;6.992;2023-01-16T17:51:02;6.40;;;4.60;;
61200;SDS011;47065;52.898;6.992;2023-01-16T17:53:28;7.18;;;4.43;;
61200;SDS011;47065;52.898;6.992;2023-01-16T17:55:56;5.43;;;4.55;;
61200;SDS011;47065;52.898;6.992;2023-01-16T18:01:00;6.40;;;4.55;;
61200;SDS011;47065;52.898;6.992;2023-01-16T18:03:33;7.47;;;4.83;;
61200;SDS011;47065;52.898;6.992;2023-01-16T18:05:59;7.75;;;5.80;;
61200;SDS011;47065;52.898;6.992;2023-01-16T18:08:26;7.70;;;5.95;;
61200;SDS011;47065;52.898;6.992;2023-01-16T18:10:57;6.60;;;5.43;;
61200;SDS011;47065;52.898;6.992;2023-01-16T18:13:24;5.93;;;5.30;;